createdAt,value
2018-07-07T00:00:28.948Z,22.49
2018-07-07T00:01:09.390Z,22.42
2018-07-07T00:01:49.819Z,22.44
2018-07-07T00:02:30.323Z,22.42
2018-07-07T00:03:10.745Z,22.38
2018-07-07T00:03:51.154Z,22.39
2018-07-07T00:04:31.612Z,22.39
2018-07-07T00:05:12.012Z,22.35
2018-07-07T00:05:52.368Z,22.33
2018-07-07T00:06:32.935Z,22.3
2018-07-07T00:07:13.368Z,22.31
2018-07-07T00:07:53.748Z,22.27
2018-07-07T00:08:34.134Z,22.23
2018-07-07T00:09:14.605Z,22.21
2018-07-07T00:09:55.056Z,22.29
2018-07-07T00:10:35.422Z,22.2
2018-07-07T00:11:16.023Z,22.26
2018-07-07T00:11:56.643Z,22.17
2018-07-07T00:12:37.122Z,22.17
2018-07-07T00:13:17.683Z,22.2
2018-07-07T00:14:01.080Z,22.14
2018-07-07T00:14:41.422Z,22.05
2018-07-07T00:15:22.078Z,22.09
2018-07-07T00:16:02.389Z,22.12
2018-07-07T00:16:42.722Z,22.14
2018-07-07T00:17:23.195Z,22.14
2018-07-07T00:18:03.563Z,22.08
2018-07-07T00:18:43.931Z,22.05
2018-07-07T00:19:24.410Z,21.94
2018-07-07T00:20:04.824Z,22.06
2018-07-07T00:20:45.266Z,22.08
2018-07-07T00:21:25.698Z,22.06
2018-07-07T00:22:06.093Z,22.09
2018-07-07T00:22:46.603Z,22.14
2018-07-07T00:23:26.929Z,22.15
2018-07-07T00:24:07.317Z,22.08
2018-07-07T00:24:47.732Z,22.08
2018-07-07T00:25:28.119Z,22.08
2018-07-07T00:26:08.565Z,22.14
2018-07-07T00:26:48.908Z,22.11
2018-07-07T00:27:29.385Z,22.12
2018-07-07T00:28:09.720Z,22.11
2018-07-07T00:28:50.135Z,22.09
2018-07-07T00:29:30.585Z,22.15
2018-07-07T00:30:11.062Z,22.12
2018-07-07T00:30:51.420Z,22.14
2018-07-07T00:31:31.893Z,22.05
2018-07-07T00:32:12.231Z,22.05
2018-07-07T00:32:52.670Z,22.12
2018-07-07T00:33:33.098Z,22.08
2018-07-07T00:34:13.534Z,22.09
2018-07-07T00:34:53.920Z,22.09
2018-07-07T00:35:34.344Z,22.12
2018-07-07T00:36:14.726Z,22.08
2018-07-07T00:36:55.160Z,22.11
2018-07-07T00:37:35.651Z,22.08
2018-07-07T00:38:15.968Z,22.12
2018-07-07T00:38:56.320Z,22.06
2018-07-07T00:39:36.734Z,22.05
2018-07-07T00:40:17.229Z,22.05
2018-07-07T00:40:57.528Z,22.09
2018-07-07T00:41:37.932Z,22.14
2018-07-07T00:42:18.360Z,22.09
2018-07-07T00:42:58.769Z,22.14
2018-07-07T00:43:39.174Z,22.14
2018-07-07T00:44:19.451Z,22.12
2018-07-07T00:44:59.893Z,22.11
2018-07-07T00:45:40.334Z,22.09
2018-07-07T00:46:20.691Z,22.04
2018-07-07T00:47:01.097Z,22.11
2018-07-07T00:47:41.564Z,22.12
2018-07-07T00:48:21.943Z,22.06
2018-07-07T00:49:02.392Z,22.09
2018-07-07T00:49:42.728Z,22.06
2018-07-07T00:50:23.138Z,22.19
2018-07-07T00:51:03.604Z,22.09
2018-07-07T00:51:44.009Z,22.11
2018-07-07T00:52:24.465Z,22.09
2018-07-07T00:53:04.782Z,22.14
2018-07-07T00:53:45.241Z,22.15
2018-07-07T00:54:25.645Z,22.09
2018-07-07T00:55:06.015Z,22.12
2018-07-07T00:55:46.470Z,22.11
2018-07-07T00:56:26.851Z,22.12
2018-07-07T00:57:07.278Z,22.06
2018-07-07T00:57:47.657Z,22.11
2018-07-07T00:58:28.034Z,22.04
2018-07-07T00:59:08.420Z,22.08
2018-07-07T00:59:48.827Z,22.06
2018-07-07T01:00:29.240Z,22.04
2018-07-07T01:01:09.615Z,22.08
2018-07-07T01:01:50.039Z,22.04
2018-07-07T01:02:30.447Z,21.99
2018-07-07T01:03:10.818Z,22.09
2018-07-07T01:03:51.222Z,21.94
2018-07-07T01:04:31.645Z,21.94
2018-07-07T01:05:12.076Z,21.94
2018-07-07T01:05:52.465Z,22.01
2018-07-07T01:06:32.849Z,21.94
2018-07-07T01:07:13.319Z,21.99
2018-07-07T01:07:53.785Z,22.05
2018-07-07T01:08:34.111Z,21.98
2018-07-07T01:09:14.573Z,21.96
2018-07-07T01:09:55.087Z,21.99
2018-07-07T01:10:35.402Z,22.04
2018-07-07T01:11:15.784Z,21.96
2018-07-07T01:11:56.165Z,21.96
2018-07-07T01:12:36.613Z,21.98
2018-07-07T01:13:16.974Z,21.86
2018-07-07T01:13:57.421Z,21.96
2018-07-07T01:14:37.852Z,21.9
2018-07-07T01:15:18.228Z,21.86
2018-07-07T01:15:58.606Z,21.9
2018-07-07T01:16:38.980Z,21.86
2018-07-07T01:17:19.428Z,21.85
2018-07-07T01:17:59.822Z,21.83
2018-07-07T01:18:40.226Z,21.85
2018-07-07T01:19:20.571Z,21.82
2018-07-07T01:20:01.076Z,21.77
2018-07-07T01:20:41.442Z,21.71
2018-07-07T01:21:21.829Z,21.7
2018-07-07T01:22:02.271Z,21.77
2018-07-07T01:22:42.694Z,21.74
2018-07-07T01:23:23.042Z,21.75
2018-07-07T01:24:03.490Z,21.7
2018-07-07T01:24:43.835Z,21.59
2018-07-07T01:25:24.281Z,21.66
2018-07-07T01:26:04.719Z,21.66
2018-07-07T01:26:45.085Z,21.61
2018-07-07T01:27:25.481Z,21.56
2018-07-07T01:28:05.942Z,21.55
2018-07-07T01:28:46.261Z,21.55
2018-07-07T01:29:26.709Z,21.55
2018-07-07T01:30:07.073Z,21.56
2018-07-07T01:30:47.564Z,21.51
2018-07-07T01:31:27.963Z,21.48
2018-07-07T01:32:08.310Z,21.51
2018-07-07T01:32:48.749Z,21.45
2018-07-07T01:33:29.192Z,21.48
2018-07-07T01:34:09.599Z,21.49
2018-07-07T01:34:49.979Z,21.43
2018-07-07T01:35:30.360Z,21.4
2018-07-07T01:36:10.751Z,21.42
2018-07-07T01:36:51.234Z,21.4
2018-07-07T01:37:31.595Z,21.36
2018-07-07T01:38:12.014Z,21.38
2018-07-07T01:38:52.387Z,21.37
2018-07-07T01:39:32.808Z,21.3
2018-07-07T01:40:13.287Z,21.31
2018-07-07T01:40:54.094Z,21.36
2018-07-07T01:41:34.408Z,21.36
2018-07-07T01:42:14.807Z,21.34
2018-07-07T01:42:55.244Z,21.26
2018-07-07T01:43:35.616Z,21.27
2018-07-07T01:44:15.994Z,21.36
2018-07-07T01:44:56.393Z,21.27
2018-07-07T01:45:36.833Z,21.33
2018-07-07T01:46:17.198Z,21.26
2018-07-07T01:46:57.781Z,21.28
2018-07-07T01:47:38.177Z,21.21
2018-07-07T01:48:18.463Z,21.27
2018-07-07T01:48:58.864Z,21.19
2018-07-07T01:49:39.237Z,21.31
2018-07-07T01:50:19.673Z,21.16
2018-07-07T01:51:00.089Z,21.15
2018-07-07T01:51:40.617Z,21.13
2018-07-07T01:52:20.981Z,21.16
2018-07-07T01:53:01.407Z,21.15
2018-07-07T01:53:41.805Z,21.12
2018-07-07T01:54:22.238Z,21.12
2018-07-07T01:55:02.641Z,21.05
2018-07-07T01:55:43.007Z,21.01
2018-07-07T01:56:23.456Z,20.98
2018-07-07T01:57:03.784Z,20.98
2018-07-07T01:57:44.346Z,21
2018-07-07T01:58:24.681Z,21.05
2018-07-07T01:59:05.142Z,20.88
2018-07-07T01:59:45.475Z,20.96
2018-07-07T02:00:25.860Z,20.9
2018-07-07T02:01:06.341Z,20.93
2018-07-07T02:01:46.629Z,20.91
2018-07-07T02:06:54.233Z,20.68
2018-07-07T02:07:35.961Z,20.63
2018-07-07T02:08:16.344Z,20.63
2018-07-07T02:08:56.706Z,20.61
2018-07-07T02:09:37.108Z,20.58
2018-07-07T02:10:17.522Z,20.51
2018-07-07T02:10:57.888Z,20.6
2018-07-07T02:11:38.313Z,20.46
2018-07-07T02:12:18.659Z,20.51
2018-07-07T02:12:59.163Z,20.48
2018-07-07T02:13:39.443Z,20.5
2018-07-07T02:14:19.870Z,20.44
2018-07-07T02:15:00.228Z,20.5
2018-07-07T02:15:40.715Z,20.48
2018-07-07T02:16:21.072Z,20.53
2018-07-07T02:17:01.536Z,20.51
2018-07-07T02:17:41.902Z,20.46
2018-07-07T02:18:22.284Z,20.48
2018-07-07T02:19:02.709Z,20.5
2018-07-07T02:19:43.074Z,20.44
2018-07-07T02:20:23.508Z,20.46
2018-07-07T02:21:03.898Z,20.44
2018-07-07T02:21:44.298Z,20.51
2018-07-07T02:22:24.737Z,20.5
2018-07-07T02:23:05.163Z,20.51
2018-07-07T02:23:45.618Z,20.56
2018-07-07T02:24:25.945Z,20.51
2018-07-07T02:25:06.395Z,20.46
2018-07-07T02:25:46.726Z,20.51
2018-07-07T02:26:27.138Z,20.54
2018-07-07T02:27:07.613Z,20.56
2018-07-07T02:27:48.019Z,20.54
2018-07-07T02:28:28.364Z,20.56
2018-07-07T02:29:08.807Z,20.46
2018-07-07T02:29:49.202Z,20.54
2018-07-07T02:30:29.579Z,20.48
2018-07-07T02:31:10.069Z,20.54
2018-07-07T02:31:50.388Z,20.54
2018-07-07T02:32:30.873Z,20.5
2018-07-07T02:33:11.218Z,20.5
2018-07-07T02:33:51.689Z,20.54
2018-07-07T02:34:31.976Z,20.48
2018-07-07T02:35:12.396Z,20.46
2018-07-07T02:35:52.865Z,20.46
2018-07-07T02:36:33.225Z,20.37
2018-07-07T02:37:13.770Z,20.42
2018-07-07T02:37:54.103Z,20.33
2018-07-07T02:38:34.500Z,20.31
2018-07-07T02:39:14.935Z,20.37
2018-07-07T02:39:55.334Z,20.33
2018-07-07T02:40:35.682Z,20.33
2018-07-07T02:41:16.158Z,20.3
2018-07-07T02:41:56.575Z,20.33
2018-07-07T02:42:36.871Z,20.3
2018-07-07T02:43:17.367Z,20.23
2018-07-07T02:43:57.709Z,20.17
2018-07-07T02:44:38.233Z,20.22
2018-07-07T02:45:18.604Z,20.16
2018-07-07T02:45:59.000Z,20.17
2018-07-07T02:46:39.379Z,20.19
2018-07-07T02:47:19.774Z,20.15
2018-07-07T02:48:00.288Z,20.19
2018-07-07T02:48:40.703Z,20.16
2018-07-07T02:49:21.033Z,20.13
2018-07-07T02:50:01.432Z,20.16
2018-07-07T02:50:41.809Z,20.16
2018-07-07T02:51:22.312Z,20.13
2018-07-07T02:52:02.767Z,20.15
2018-07-07T02:52:43.275Z,20.15
2018-07-07T02:53:23.769Z,20.05
2018-07-07T02:54:04.161Z,20.05
2018-07-07T02:54:44.550Z,20.12
2018-07-07T02:55:24.933Z,20.05
2018-07-07T02:56:05.293Z,20.08
2018-07-07T02:56:45.789Z,20.05
2018-07-07T02:57:26.187Z,20.01
2018-07-07T02:58:06.617Z,20.02
2018-07-07T02:58:46.931Z,20.07
2018-07-07T02:59:27.464Z,20.1
2018-07-07T03:00:07.843Z,19.94
2018-07-07T03:00:48.179Z,20.01
2018-07-07T03:01:28.618Z,20.12
2018-07-07T03:02:08.990Z,19.95
2018-07-07T03:02:49.411Z,20.1
2018-07-07T03:03:29.820Z,20.04
2018-07-07T03:04:10.187Z,20.05
2018-07-07T03:04:50.637Z,20.07
2018-07-07T03:05:31.044Z,20.1
2018-07-07T03:06:11.462Z,20.04
2018-07-07T03:06:51.837Z,20.05
2018-07-07T03:07:32.260Z,20.05
2018-07-07T03:08:12.627Z,20.02
2018-07-07T03:08:53.049Z,20.1
2018-07-07T03:09:33.499Z,20.05
2018-07-07T03:10:13.907Z,20.08
2018-07-07T03:10:54.393Z,20.02
2018-07-07T03:11:34.854Z,20
2018-07-07T03:12:15.125Z,20.07
2018-07-07T03:12:55.662Z,20.07
2018-07-07T03:13:35.959Z,20.05
2018-07-07T03:14:16.396Z,20.08
2018-07-07T03:14:56.805Z,20.08
2018-07-07T03:15:37.173Z,20.1
2018-07-07T03:20:13.079Z,20.19
2018-07-07T03:20:52.173Z,20.13
2018-07-07T03:21:32.656Z,20.17
2018-07-07T03:22:13.047Z,20.26
2018-07-07T03:22:53.480Z,20.27
2018-07-07T03:23:33.825Z,20.26
2018-07-07T03:24:14.282Z,20.25
2018-07-07T03:24:54.713Z,20.27
2018-07-07T03:25:35.016Z,20.37
2018-07-07T03:26:15.456Z,20.33
2018-07-07T03:26:55.869Z,20.33
2018-07-07T03:27:36.229Z,20.41
2018-07-07T03:28:16.611Z,20.41
2018-07-07T03:28:57.096Z,20.31
2018-07-07T03:29:37.475Z,20.37
2018-07-07T03:30:17.838Z,20.34
2018-07-07T03:30:58.295Z,20.33
2018-07-07T03:31:38.640Z,20.27
2018-07-07T03:32:19.057Z,20.22
2018-07-07T03:32:59.514Z,20.25
2018-07-07T03:33:39.872Z,20.33
2018-07-07T03:34:20.316Z,20.26
2018-07-07T03:35:00.752Z,20.27
2018-07-07T03:35:41.082Z,20.13
2018-07-07T03:36:21.530Z,20.22
2018-07-07T03:37:01.901Z,20.1
2018-07-07T03:37:42.354Z,20.15
2018-07-07T03:38:22.749Z,20.25
2018-07-07T03:39:03.282Z,20.3
2018-07-07T03:39:43.512Z,20.23
2018-07-07T03:40:23.931Z,20.22
2018-07-07T03:41:04.404Z,20.2
2018-07-07T03:41:44.952Z,20.25
2018-07-07T03:42:25.341Z,20.22
2018-07-07T03:43:05.763Z,20.2
2018-07-07T03:43:46.243Z,20.16
2018-07-07T03:44:26.574Z,20.16
2018-07-07T03:45:06.921Z,20.13
2018-07-07T03:45:47.366Z,20.16
2018-07-07T03:46:27.757Z,20.15
2018-07-07T03:47:08.129Z,20.13
2018-07-07T03:47:48.546Z,20.2
2018-07-07T03:48:28.977Z,20.19
2018-07-07T03:49:09.464Z,20.1
2018-07-07T03:49:49.888Z,20.22
2018-07-07T03:50:30.136Z,20.19
2018-07-07T03:51:10.549Z,20.19
2018-07-07T03:51:50.921Z,20.16
2018-07-07T03:52:31.344Z,20.13
2018-07-07T03:53:11.766Z,20.13
2018-07-07T03:53:52.127Z,20
2018-07-07T03:54:32.574Z,19.98
2018-07-07T03:55:13.037Z,20.05
2018-07-07T03:55:53.449Z,20.04
2018-07-07T03:56:33.805Z,20.08
2018-07-07T03:57:14.226Z,19.94
2018-07-07T03:57:54.689Z,20
2018-07-07T03:58:35.067Z,19.98
2018-07-07T03:59:15.515Z,19.94
2018-07-07T03:59:55.964Z,19.89
2018-07-07T04:00:36.388Z,19.89
2018-07-07T04:01:16.794Z,19.86
2018-07-07T04:01:57.250Z,19.92
2018-07-07T04:02:37.623Z,19.89
2018-07-07T04:03:18.091Z,19.8
2018-07-07T04:48:45.716Z,19.06
2018-07-07T04:51:09.215Z,19.1
2018-07-07T04:51:49.687Z,19.06
2018-07-07T04:52:30.178Z,19.12
2018-07-07T04:53:10.429Z,19.15
2018-07-07T04:53:50.812Z,19.16
2018-07-07T04:54:31.224Z,19.25
2018-07-07T04:55:11.590Z,19.3
2018-07-07T04:55:52.028Z,19.4
2018-07-07T04:56:32.412Z,19.45
2018-07-07T04:57:12.783Z,19.5
2018-07-07T04:57:53.273Z,19.6
2018-07-07T04:58:33.667Z,19.71
2018-07-07T04:59:14.104Z,19.7
2018-07-07T04:59:54.503Z,19.67
2018-07-07T05:00:34.857Z,19.78
2018-07-07T05:01:15.227Z,19.86
2018-07-07T05:01:55.648Z,20.07
2018-07-07T05:02:36.090Z,20.19
2018-07-07T05:03:16.515Z,20.31
2018-07-07T05:03:56.857Z,20.51
2018-07-07T05:04:37.553Z,20.66
2018-07-07T05:05:17.819Z,20.83
2018-07-07T05:05:58.187Z,20.98
2018-07-07T05:06:38.486Z,21.11
2018-07-07T05:07:18.896Z,21.27
2018-07-07T05:07:59.295Z,21.38
2018-07-07T05:08:39.810Z,21.48
2018-07-07T05:09:20.313Z,21.63
2018-07-07T05:10:00.781Z,21.71
2018-07-07T05:10:41.277Z,21.73
2018-07-07T05:11:21.890Z,21.93
2018-07-07T05:12:02.078Z,21.99
2018-07-07T05:12:42.617Z,22.23
2018-07-07T05:13:23.104Z,22.38
2018-07-07T05:14:03.635Z,22.56
2018-07-07T05:14:43.936Z,22.74
2018-07-07T05:15:24.364Z,23.06
2018-07-07T05:16:04.824Z,23.32
2018-07-07T05:16:45.341Z,23.53
2018-07-07T05:17:25.787Z,23.75
2018-07-07T05:18:06.181Z,23.94
2018-07-07T05:18:46.687Z,24.16
2018-07-07T05:19:26.985Z,24.46
2018-07-07T05:20:07.454Z,24.6
2018-07-07T05:20:47.817Z,24.79
2018-07-07T05:21:28.194Z,24.77
2018-07-07T05:22:08.613Z,24.89
2018-07-07T05:22:49.091Z,24.87
2018-07-07T05:23:29.469Z,24.9
2018-07-07T05:24:09.841Z,24.94
2018-07-07T05:24:50.234Z,25.08
2018-07-07T05:25:30.693Z,25.09
2018-07-07T05:26:11.118Z,25.22
2018-07-07T05:26:54.526Z,25.31
2018-07-07T05:27:34.911Z,25.64
2018-07-07T05:28:15.359Z,25.69
2018-07-07T05:28:55.780Z,25.97
2018-07-07T05:29:36.257Z,26.09
2018-07-07T05:30:16.643Z,26.31
2018-07-07T05:30:57.001Z,26.31
2018-07-07T05:31:37.406Z,26.35
2018-07-07T05:32:17.827Z,26.5
2018-07-07T05:32:58.233Z,26.65
2018-07-07T05:33:38.714Z,26.65
2018-07-07T05:36:25.763Z,27.31
2018-07-07T05:37:05.895Z,27.25
2018-07-07T05:37:46.225Z,27.38
2018-07-07T05:38:26.648Z,27.53
2018-07-07T05:39:07.046Z,27.63
2018-07-07T05:39:47.430Z,27.55
2018-07-07T05:40:27.872Z,27.5
2018-07-07T05:41:08.253Z,27.55
2018-07-07T05:41:48.658Z,27.58
2018-07-07T05:42:29.101Z,27.45
2018-07-07T05:43:09.454Z,27.4
2018-07-07T05:43:49.964Z,27.24
2018-07-07T05:44:30.299Z,27.03
2018-07-07T05:45:10.682Z,26.98
2018-07-07T05:45:51.152Z,27.01
2018-07-07T05:46:31.621Z,26.91
2018-07-07T05:47:11.997Z,26.96
2018-07-07T05:47:52.506Z,27.03
2018-07-07T05:48:32.773Z,27.09
2018-07-07T05:49:13.216Z,27.01
2018-07-07T05:49:53.736Z,26.9
2018-07-07T05:50:34.090Z,26.91
2018-07-07T05:51:14.476Z,26.93
2018-07-07T05:51:54.886Z,26.91
2018-07-07T05:52:35.291Z,27.02
2018-07-07T05:53:15.744Z,27.08
2018-07-07T05:53:56.108Z,27.12
2018-07-07T05:54:36.554Z,27.2
2018-07-07T05:55:16.908Z,27.28
2018-07-07T05:55:57.363Z,27.3
2018-07-07T05:56:37.766Z,27.25
2018-07-07T05:57:18.222Z,27.24
2018-07-07T05:57:58.622Z,27.3
2018-07-07T05:58:38.926Z,27.28
2018-07-07T05:59:19.374Z,27.31
2018-07-07T05:59:59.799Z,27.24
2018-07-07T06:00:40.202Z,27.27
2018-07-07T06:01:20.565Z,27.09
2018-07-07T06:02:01.026Z,27.25
2018-07-07T06:02:41.431Z,27.16
2018-07-07T06:03:21.883Z,27.15
2018-07-07T06:04:02.369Z,27.15
2018-07-07T06:04:42.708Z,27.01
2018-07-07T06:05:23.096Z,26.86
2018-07-07T06:06:03.585Z,26.79
2018-07-07T06:06:43.906Z,26.71
2018-07-07T06:07:24.415Z,26.73
2018-07-07T06:08:04.802Z,26.69
2018-07-07T06:08:45.566Z,26.64
2018-07-07T06:09:25.845Z,26.49
2018-07-07T06:10:06.250Z,26.51
2018-07-07T06:10:46.614Z,26.44
2018-07-07T06:11:27.093Z,26.44
2018-07-07T06:12:07.480Z,26.36
2018-07-07T06:13:49.454Z,26.29
2018-07-07T06:14:31.121Z,26.13
2018-07-07T06:15:11.600Z,26.09
2018-07-07T06:15:51.897Z,26.16
2018-07-07T06:16:32.291Z,26.12
2018-07-07T06:17:13.518Z,25.98
2018-07-07T06:17:53.917Z,25.96
2018-07-07T06:18:34.284Z,26.01
2018-07-07T06:19:14.794Z,25.91
2018-07-07T06:19:55.050Z,25.86
2018-07-07T06:20:35.874Z,25.94
2018-07-07T06:21:16.468Z,25.93
2018-07-07T06:21:56.733Z,25.83
2018-07-07T06:22:37.216Z,25.82
2018-07-07T06:23:17.619Z,25.81
2018-07-07T06:23:58.035Z,25.85
2018-07-07T06:24:38.496Z,25.85
2018-07-07T06:25:18.837Z,25.72
2018-07-07T06:25:59.253Z,25.75
2018-07-07T06:26:39.837Z,25.71
2018-07-07T06:27:20.492Z,25.76
2018-07-07T06:28:00.738Z,25.72
2018-07-07T06:28:41.247Z,25.91
2018-07-07T06:29:21.611Z,25.83
2018-07-07T06:30:02.330Z,25.91
2018-07-07T06:30:42.824Z,25.81
2018-07-07T06:31:23.183Z,25.85
2018-07-07T06:32:03.863Z,25.78
2018-07-07T06:32:44.103Z,25.69
2018-07-07T06:33:24.497Z,25.6
2018-07-07T06:35:12.360Z,25.57
2018-07-07T06:35:52.672Z,25.56
2018-07-07T06:36:33.091Z,25.53
2018-07-07T06:37:13.644Z,25.48
2018-07-07T06:37:54.183Z,25.42
2018-07-07T06:38:34.411Z,25.46
2018-07-07T06:39:14.782Z,25.57
2018-07-07T06:39:55.248Z,25.56
2018-07-07T06:40:35.744Z,25.59
2018-07-07T06:41:16.174Z,25.69
2018-07-07T06:41:56.560Z,25.74
2018-07-07T06:42:36.952Z,25.81
2018-07-07T06:43:17.427Z,25.76
2018-07-07T06:43:57.758Z,25.9
2018-07-07T06:44:38.191Z,25.9
2018-07-07T06:45:18.643Z,25.9
2018-07-07T06:45:58.988Z,25.93
2018-07-07T06:46:39.473Z,26.04
2018-07-07T06:47:19.850Z,26.06
2018-07-07T06:48:00.225Z,26.2
2018-07-07T06:48:40.678Z,26.2
2018-07-07T06:49:21.067Z,26.36
2018-07-07T06:50:01.600Z,26.38
2018-07-07T06:50:41.985Z,26.54
2018-07-07T06:51:22.407Z,26.61
2018-07-07T06:52:02.839Z,26.66
2018-07-07T06:52:43.434Z,26.79
2018-07-07T06:53:23.746Z,26.9
2018-07-07T06:54:04.207Z,27.11
2018-07-07T06:54:44.670Z,27.11
2018-07-07T06:55:25.007Z,27.25
2018-07-07T06:56:05.362Z,27.39
2018-07-07T06:56:45.789Z,27.53
2018-07-07T06:57:26.192Z,27.52
2018-07-07T06:58:06.639Z,27.53
2018-07-07T06:58:47.074Z,27.68
2018-07-07T07:05:32.518Z,28.7
2018-07-07T07:06:13.016Z,28.77
2018-07-07T07:06:53.500Z,28.67
2018-07-07T07:07:33.948Z,28.94
2018-07-07T07:08:14.322Z,28.98
2018-07-07T07:08:54.723Z,28.97
2018-07-07T07:09:35.127Z,29.12
2018-07-07T07:10:15.666Z,29.15
2018-07-07T07:10:56.024Z,29.3
2018-07-07T07:11:36.398Z,29.37
2018-07-07T07:12:16.818Z,29.51
2018-07-07T07:12:57.253Z,29.71
2018-07-07T07:13:37.626Z,29.84
2018-07-07T07:14:18.037Z,29.89
2018-07-07T07:14:58.547Z,29.94
2018-07-07T07:15:38.971Z,29.99
2018-07-07T07:16:19.343Z,30.04
2018-07-07T07:16:59.800Z,30.16
2018-07-07T07:17:40.189Z,30.32
2018-07-07T07:18:20.668Z,30.34
2018-07-07T07:19:03.960Z,30.6
2018-07-07T07:19:44.415Z,30.68
2018-07-07T07:20:24.806Z,30.83
2018-07-07T07:21:05.253Z,30.88
2018-07-07T07:26:10.236Z,31.52
2018-07-07T07:26:50.320Z,31.53
2018-07-07T07:27:30.759Z,31.59
2018-07-07T07:28:11.193Z,31.45
2018-07-07T07:28:51.661Z,31.56
2018-07-07T07:29:32.038Z,31.45
2018-07-07T07:30:12.501Z,31.62
2018-07-07T07:30:52.984Z,31.74
2018-07-07T07:31:33.362Z,31.71
2018-07-07T07:32:13.788Z,31.78
2018-07-07T07:32:54.210Z,31.79
2018-07-07T07:33:34.671Z,31.87
2018-07-07T07:34:15.068Z,31.92
2018-07-07T07:34:55.546Z,31.92
2018-07-07T07:35:35.890Z,31.88
2018-07-07T07:36:16.469Z,31.87
2018-07-07T07:36:56.858Z,31.94
2018-07-07T07:37:37.101Z,31.95
2018-07-07T07:38:17.570Z,32.09
2018-07-07T07:38:58.327Z,32.17
2018-07-07T07:39:38.704Z,32.29
2018-07-07T07:40:19.330Z,32.31
2018-07-07T07:40:59.635Z,32.25
2018-07-07T07:41:40.125Z,32.35
2018-07-07T07:42:20.559Z,32.36
2018-07-07T07:43:00.968Z,32.4
2018-07-07T07:43:41.389Z,32.44
2018-07-07T07:44:21.992Z,32.39
2018-07-07T07:45:02.315Z,32.51
2018-07-07T07:45:42.776Z,32.51
2018-07-07T07:46:23.160Z,32.51
2018-07-07T07:47:03.689Z,32.49
2018-07-07T07:47:44.132Z,32.53
2018-07-07T07:48:24.608Z,32.5
2018-07-07T07:49:04.941Z,32.5
2018-07-07T07:49:45.351Z,32.44
2018-07-07T07:50:25.798Z,32.31
2018-07-07T07:51:06.173Z,32.4
2018-07-07T07:51:46.753Z,32.41
2018-07-07T07:52:27.099Z,32.28
2018-07-07T07:53:07.591Z,32.24
2018-07-07T07:53:47.986Z,32.05
2018-07-07T07:54:28.414Z,32.05
2018-07-07T07:55:08.938Z,31.98
2018-07-07T07:55:49.277Z,31.91
2018-07-07T07:56:29.769Z,31.88
2018-07-07T07:57:10.141Z,31.88
2018-07-07T07:57:50.557Z,31.75
2018-07-07T07:58:30.996Z,31.76
2018-07-07T07:59:11.449Z,31.82
2018-07-07T07:59:51.913Z,31.88
2018-07-07T08:00:32.265Z,31.91
2018-07-07T08:01:12.686Z,31.88
2018-07-07T08:01:53.110Z,31.98
2018-07-07T08:02:33.553Z,31.9
2018-07-07T08:03:13.989Z,31.98
2018-07-07T08:03:54.472Z,32.06
2018-07-07T08:04:34.881Z,32.03
2018-07-07T08:05:15.346Z,32.09
2018-07-07T08:05:55.823Z,32.1
2018-07-07T08:06:36.175Z,32.28
2018-07-07T08:07:16.704Z,32.22
2018-07-07T08:07:57.054Z,32.35
2018-07-07T08:08:37.459Z,32.32
2018-07-07T08:09:17.848Z,32.4
2018-07-07T08:09:58.544Z,32.47
2018-07-07T08:10:39.039Z,32.53
2018-07-07T08:11:19.845Z,32.69
2018-07-07T08:12:00.256Z,32.66
2018-07-07T08:12:40.710Z,32.51
2018-07-07T08:14:18.987Z,32.32
2018-07-07T08:14:59.440Z,32.46
2018-07-07T08:15:39.861Z,32.58
2018-07-07T08:16:20.213Z,32.63
2018-07-07T08:17:00.662Z,32.71
2018-07-07T08:17:41.257Z,32.62
2018-07-07T08:18:21.649Z,32.51
2018-07-07T08:19:02.107Z,32.65
2018-07-07T08:19:42.593Z,32.65
2018-07-07T08:20:22.889Z,32.71
2018-07-07T08:21:03.379Z,32.8
2018-07-07T08:21:43.775Z,32.87
2018-07-07T08:22:24.203Z,33.09
2018-07-07T08:23:04.684Z,33.05
2018-07-07T08:23:45.040Z,33.15
2018-07-07T08:24:25.502Z,33.17
2018-07-07T08:25:05.879Z,33.14
2018-07-07T08:25:46.361Z,33
2018-07-07T08:26:26.842Z,33.06
2018-07-07T08:27:07.272Z,33.03
2018-07-07T08:27:47.794Z,33.02
2018-07-07T08:28:28.203Z,33.03
2018-07-07T08:29:08.597Z,33.09
2018-07-07T08:29:49.350Z,33.07
2018-07-07T08:30:29.784Z,33.03
2018-07-07T08:31:10.265Z,33.03
2018-07-07T08:31:50.701Z,32.99
2018-07-07T08:32:31.090Z,33.03
2018-07-07T08:33:11.603Z,33.22
2018-07-07T08:33:52.472Z,33.33
2018-07-07T08:34:32.828Z,33.31
2018-07-07T08:35:13.254Z,33.29
2018-07-07T08:35:53.659Z,33.47
2018-07-07T08:36:34.159Z,33.57
2018-07-07T08:37:14.454Z,33.56
2018-07-07T08:37:54.862Z,33.68
2018-07-07T08:38:35.508Z,33.72
2018-07-07T08:39:15.832Z,33.78
2018-07-07T08:39:56.183Z,33.62
2018-07-07T08:40:36.751Z,33.66
2018-07-07T08:41:17.092Z,33.72
2018-07-07T08:41:57.615Z,33.77
2018-07-07T08:42:37.927Z,33.72
2018-07-07T08:43:18.426Z,33.86
2018-07-07T08:43:58.735Z,33.96
2018-07-07T08:44:39.102Z,34.06
2018-07-07T08:45:19.550Z,34.19
2018-07-07T08:45:59.978Z,34.08
2018-07-07T08:46:40.397Z,34.14
2018-07-07T08:47:20.836Z,34.12
2018-07-07T08:48:01.172Z,34.21
2018-07-07T08:48:41.621Z,34.33
2018-07-07T08:49:22.221Z,34.27
2018-07-07T08:50:02.486Z,34.28
2018-07-07T08:50:42.954Z,34.45
2018-07-07T08:51:23.702Z,34.28
2018-07-07T08:52:04.132Z,34.34
2018-07-07T08:52:47.505Z,34.43
2018-07-07T08:53:27.883Z,34.42
2018-07-07T08:54:08.217Z,34.48
2018-07-07T08:54:48.660Z,34.42
2018-07-07T08:55:29.177Z,34.53
2018-07-07T08:56:09.474Z,34.42
2018-07-07T08:56:49.993Z,34.37
2018-07-07T08:57:30.453Z,34.33
2018-07-07T08:58:10.869Z,34.3
2018-07-07T08:58:51.271Z,34.34
2018-07-07T08:59:31.663Z,34.37
2018-07-07T09:00:12.286Z,34.46
2018-07-07T09:00:53.268Z,34.61
2018-07-07T09:01:33.761Z,34.65
2018-07-07T09:02:14.186Z,34.67
2018-07-07T09:02:54.588Z,34.76
2018-07-07T09:03:35.011Z,34.69
2018-07-07T09:04:15.425Z,34.81
2018-07-07T09:04:55.906Z,34.95
2018-07-07T09:05:36.423Z,34.95
2018-07-07T09:06:16.774Z,34.86
2018-07-07T09:06:57.176Z,34.86
2018-07-07T09:07:37.663Z,34.81
2018-07-07T09:08:19.013Z,34.65
2018-07-07T09:08:59.435Z,34.58
2018-07-07T09:09:39.947Z,34.6
2018-07-07T09:10:20.827Z,34.6
2018-07-07T09:11:01.169Z,34.72
2018-07-07T09:11:41.594Z,34.67
2018-07-07T09:12:22.021Z,34.72
2018-07-07T09:13:02.476Z,34.78
2018-07-07T09:13:42.903Z,34.93
2018-07-07T09:14:23.373Z,34.9
2018-07-07T09:15:03.780Z,34.83
2018-07-07T09:15:44.187Z,34.83
2018-07-07T09:16:24.951Z,34.78
2018-07-07T09:17:05.377Z,34.8
2018-07-07T09:17:46.384Z,34.9
2018-07-07T09:18:26.827Z,34.75
2018-07-07T09:19:07.275Z,34.78
2018-07-07T09:19:48.069Z,34.98
2018-07-07T09:20:28.956Z,35
2018-07-07T09:21:09.515Z,35.05
2018-07-07T09:21:49.830Z,35.1
2018-07-07T09:22:30.453Z,35.17
2018-07-07T09:23:11.078Z,35.22
2018-07-07T09:23:51.480Z,35.28
2018-07-07T09:24:32.052Z,35.27
2018-07-07T09:25:12.488Z,35.29
2018-07-07T09:25:52.889Z,35.52
2018-07-07T09:26:33.295Z,35.58
2018-07-07T09:27:13.886Z,35.65
2018-07-07T09:27:54.323Z,35.61
2018-07-07T09:28:34.772Z,35.84
2018-07-07T09:29:15.296Z,35.77
2018-07-07T09:29:55.634Z,35.71
2018-07-07T09:30:36.103Z,35.71
2018-07-07T09:31:16.501Z,35.74
2018-07-07T09:31:56.998Z,35.73
2018-07-07T09:32:37.366Z,35.68
2018-07-07T09:33:17.766Z,35.74
2018-07-07T09:33:58.221Z,35.78
2018-07-07T09:34:38.627Z,35.69
2018-07-07T09:35:19.041Z,35.78
2018-07-07T09:35:59.480Z,35.81
2018-07-07T09:36:40.061Z,35.77
2018-07-07T09:37:20.457Z,35.68
2018-07-07T09:38:01.011Z,35.68
2018-07-07T09:38:41.431Z,35.78
2018-07-07T09:39:21.813Z,35.76
2018-07-07T09:40:02.256Z,35.96
2018-07-07T09:40:42.687Z,35.96
2018-07-07T09:41:23.109Z,35.99
2018-07-07T09:42:03.553Z,36.19
2018-07-07T09:42:43.999Z,36.21
2018-07-07T09:43:24.451Z,36.34
2018-07-07T09:44:04.914Z,36.4
2018-07-07T09:44:45.255Z,36.43
2018-07-07T09:45:25.677Z,36.41
2018-07-07T09:46:06.557Z,36.37
2018-07-07T09:46:46.993Z,36.28
2018-07-07T09:47:27.413Z,36.38
2018-07-07T09:48:08.010Z,36.4
2018-07-07T09:48:48.375Z,36.35
2018-07-07T09:49:28.817Z,36.3
2018-07-07T09:50:09.223Z,36.34
2018-07-07T09:50:49.724Z,36.3
2018-07-07T09:51:30.024Z,36.21
2018-07-07T09:52:10.421Z,36.37
2018-07-07T09:52:50.857Z,36.48
2018-07-07T09:53:31.266Z,36.6